Time;durP1;ratioP1;P1;durP2;ratioP2;P2;SDS_P1;SDS_P2;PMS_P1;PMS_P2;Temp;Humidity;BMP_temperature;BMP_pressure;BME280_temperature;BME280_humidity;BME280_pressure;Samples;Min_cycle;Max_cycle;Signal;HPM_P1;HPM_P2
2022/04/03 00:00:39;;;;;;;10.00;4.93;;;;;;;;;;5014214;28;20060;-83
2022/04/03 00:03:04;;;;;;;11.65;4.93;;;;;;;;;;5016481;28;20077;-83
2022/04/03 00:05:33;;;;;;;12.52;6.22;;;;;;;;;;5015835;28;20374;-83
2022/04/03 00:07:59;;;;;;;12.80;7.13;;;;;;;;;;5015501;28;20076;-83
2022/04/03 00:10:24;;;;;;;9.00;5.40;;;;;;;;;;5013964;28;20018;-83
2022/04/03 00:12:50;;;;;;;15.17;5.93;;;;;;;;;;5015313;28;20482;-83
2022/04/03 00:15:16;;;;;;;13.30;6.07;;;;;;;;;;5014016;28;20029;-83
2022/04/03 00:17:42;;;;;;;17.33;7.53;;;;;;;;;;5013877;28;20033;-83
2022/04/03 00:20:08;;;;;;;13.20;6.10;;;;;;;;;;5013503;28;20041;-83
2022/04/03 00:22:34;;;;;;;13.00;5.10;;;;;;;;;;5013947;28;20084;-83
2022/04/03 00:25:00;;;;;;;6.17;3.97;;;;;;;;;;5014423;28;20558;-83
2022/04/03 00:27:25;;;;;;;15.27;6.20;;;;;;;;;;5013158;28;20084;-83
2022/04/03 00:29:50;;;;;;;8.23;4.30;;;;;;;;;;5013856;28;20034;-83
2022/04/03 00:32:15;;;;;;;10.57;4.93;;;;;;;;;;5013880;28;20093;-83
2022/04/03 00:34:41;;;;;;;8.33;4.13;;;;;;;;;;5013536;28;20400;-83
2022/04/03 00:37:06;;;;;;;14.03;5.97;;;;;;;;;;5014182;28;20018;-82
2022/04/03 00:39:31;;;;;;;11.93;5.23;;;;;;;;;;5014694;28;20022;-83
2022/04/03 00:41:56;;;;;;;13.67;5.73;;;;;;;;;;5014942;28;20025;-83
2022/04/03 00:44:23;;;;;;;15.40;5.00;;;;;;;;;;5013542;28;20072;-83
2022/04/03 00:46:48;;;;;;;9.07;4.33;;;;;;;;;;5014617;28;20061;-83
2022/04/03 00:49:13;;;;;;;14.43;5.83;;;;;;;;;;5014791;28;20524;-83
2022/04/03 00:51:38;;;;;;;8.23;4.73;;;;;;;;;;5014741;28;20021;-83
2022/04/03 00:54:04;;;;;;;6.53;4.13;;;;;;;;;;5013307;28;20040;-81
2022/04/03 00:56:30;;;;;;;14.73;4.40;;;;;;;;;;5013439;28;20037;-83
2022/04/03 00:58:56;;;;;;;10.13;5.03;;;;;;;;;;5014901;28;20018;-83
2022/04/03 01:01:21;;;;;;;9.83;4.90;;;;;;;;;;5013333;28;20072;-83
2022/04/03 01:03:47;;;;;;;8.73;4.37;;;;;;;;;;5013263;28;20014;-83
2022/04/03 01:06:12;;;;;;;9.13;4.80;;;;;;;;;;5013148;28;20018;-82
2022/04/03 01:08:37;;;;;;;11.10;4.70;;;;;;;;;;5012599;28;20040;-83
2022/04/03 01:11:02;;;;;;;10.00;4.57;;;;;;;;;;5013863;28;20021;-82
2022/04/03 01:13:28;;;;;;;8.93;4.40;;;;;;;;;;5012738;28;20061;-83
2022/04/03 01:15:59;;;;;;;12.80;4.40;;;;;;;;;;5013016;28;20060;-83
2022/04/03 01:18:25;;;;;;;9.73;4.30;;;;;;;;;;5012889;28;20109;-82
2022/04/03 01:20:52;;;;;;;7.37;4.13;;;;;;;;;;5013921;28;20026;-81
2022/04/03 01:23:18;;;;;;;9.83;3.87;;;;;;;;;;5012871;28;20485;-83
2022/04/03 01:25:43;;;;;;;5.67;3.63;;;;;;;;;;5012584;28;20025;-83
2022/04/03 01:28:08;;;;;;;8.73;4.00;;;;;;;;;;5012754;28;20455;-83
2022/04/03 01:30:34;;;;;;;5.50;3.70;;;;;;;;;;5012584;28;20033;-82
2022/04/03 01:32:59;;;;;;;9.27;4.40;;;;;;;;;;5012777;28;20036;-83
2022/04/03 01:35:24;;;;;;;11.67;4.00;;;;;;;;;;5012605;28;20029;-83
2022/04/03 01:37:49;;;;;;;8.63;4.30;;;;;;;;;;5012496;28;20030;-83
2022/04/03 01:40:15;;;;;;;11.43;4.43;;;;;;;;;;5013567;28;20017;-83
2022/04/03 01:42:40;;;;;;;8.20;4.40;;;;;;;;;;5012809;28;20378;-83
2022/04/03 01:45:06;;;;;;;8.17;4.87;;;;;;;;;;5013895;28;20463;-81
2022/04/03 01:47:32;;;;;;;11.30;4.47;;;;;;;;;;5011831;28;20410;-83
2022/04/03 01:49:57;;;;;;;8.97;3.80;;;;;;;;;;5013567;28;20483;-83
2022/04/03 01:52:22;;;;;;;7.57;4.20;;;;;;;;;;5012292;28;20023;-83
2022/04/03 01:54:47;;;;;;;10.10;3.70;;;;;;;;;;5012334;28;20022;-83
2022/04/03 01:57:13;;;;;;;7.83;3.70;;;;;;;;;;5013694;28;20021;-83
2022/04/03 01:59:38;;;;;;;8.23;4.03;;;;;;;;;;5012643;28;20034;-83
2022/04/03 02:02:03;;;;;;;4.53;3.60;;;;;;;;;;5012108;28;20010;-83
2022/04/03 02:04:28;;;;;;;8.87;4.20;;;;;;;;;;5011941;28;20104;-83
2022/04/03 02:06:54;;;;;;;7.93;4.37;;;;;;;;;;5012309;28;20018;-83
2022/04/03 02:09:19;;;;;;;7.43;3.87;;;;;;;;;;5011494;28;20395;-83
2022/04/03 02:11:44;;;;;;;9.80;4.23;;;;;;;;;;5012831;28;20022;-83
2022/04/03 02:14:09;;;;;;;6.97;3.80;;;;;;;;;;5013227;28;20033;-83
2022/04/03 02:16:35;;;;;;;7.57;3.77;;;;;;;;;;5012055;28;20022;-83
2022/04/03 02:19:00;;;;;;;9.80;3.90;;;;;;;;;;5013311;28;20022;-83
2022/04/03 02:21:25;;;;;;;7.97;3.43;;;;;;;;;;5011887;28;20022;-83
2022/04/03 02:23:51;;;;;;;6.57;3.57;;;;;;;;;;5011297;28;20025;-83
2022/04/03 02:26:17;;;;;;;7.67;3.33;;;;;;;;;;5011896;28;20029;-83
2022/04/03 02:28:43;;;;;;;6.40;3.70;;;;;;;;;;5013116;28;20467;-83
2022/04/03 02:31:08;;;;;;;9.73;4.17;;;;;;;;;;5012953;28;20065;-83
2022/04/03 02:33:33;;;;;;;8.20;3.97;;;;;;;;;;5011541;28;20022;-83
2022/04/03 02:35:59;;;;;;;9.27;4.23;;;;;;;;;;5012446;28;20522;-83
2022/04/03 02:38:24;;;;;;;7.37;3.97;;;;;;;;;;5011302;28;20438;-83
2022/04/03 02:40:50;;;;;;;9.63;4.33;;;;;;;;;;5011470;28;20025;-83
2022/04/03 02:43:15;;;;;;;6.50;4.30;;;;;;;;;;5011602;28;20080;-83
2022/04/03 02:45:40;;;;;;;11.10;4.20;;;;;;;;;;5011417;28;20017;-83
2022/04/03 02:48:06;;;;;;;9.63;4.23;;;;;;;;;;5011345;28;20022;-83
2022/04/03 02:50:31;;;;;;;12.00;4.53;;;;;;;;;;5011291;28;20485;-83
2022/04/03 02:52:56;;;;;;;13.20;4.50;;;;;;;;;;5011582;28;20018;-83
2022/04/03 02:55:23;;;;;;;9.37;4.53;;;;;;;;;;5011015;28;20026;-83
2022/04/03 02:57:48;;;;;;;11.33;5.50;;;;;;;;;;5011116;28;20029;-83
2022/04/03 03:00:14;;;;;;;11.07;5.00;;;;;;;;;;5012345;28;20014;-83
2022/04/03 03:02:43;;;;;;;7.07;4.67;;;;;;;;;;5012786;28;20044;-83
2022/04/03 03:05:09;;;;;;;7.57;4.17;;;;;;;;;;5011112;28;20054;-84
2022/04/03 03:07:37;;;;;;;8.10;4.33;;;;;;;;;;5012161;28;20049;-83
2022/04/03 03:10:03;;;;;;;12.73;4.77;;;;;;;;;;5010743;28;20129;-83
2022/04/03 03:12:29;;;;;;;10.67;4.50;;;;;;;;;;5010973;28;20033;-83
2022/04/03 03:14:56;;;;;;;9.53;4.30;;;;;;;;;;5011317;28;20450;-83
2022/04/03 03:17:22;;;;;;;9.97;4.33;;;;;;;;;;5011059;28;20025;-83
2022/04/03 03:19:47;;;;;;;12.37;5.33;;;;;;;;;;5010533;28;20022;-83
2022/04/03 03:22:12;;;;;;;11.53;5.03;;;;;;;;;;5012357;28;20486;-83
2022/04/03 03:24:37;;;;;;;10.73;4.90;;;;;;;;;;5012402;28;20046;-83
2022/04/03 03:27:02;;;;;;;11.77;4.73;;;;;;;;;;5012201;28;20068;-83
2022/04/03 03:29:28;;;;;;;8.93;4.80;;;;;;;;;;5012341;28;20482;-83
2022/04/03 03:31:53;;;;;;;10.47;4.07;;;;;;;;;;5012510;28;20018;-83
2022/04/03 03:34:18;;;;;;;8.97;4.07;;;;;;;;;;5012287;28;20022;-83
2022/04/03 03:36:43;;;;;;;8.87;4.20;;;;;;;;;;5012327;28;20046;-83
2022/04/03 03:39:08;;;;;;;11.73;4.67;;;;;;;;;;5012174;28;20028;-83
2022/04/03 03:41:34;;;;;;;7.67;4.73;;;;;;;;;;5010619;28;21045;-83
2022/04/03 03:43:59;;;;;;;7.80;4.20;;;;;;;;;;5012232;28;20455;-84
2022/04/03 03:46:24;;;;;;;10.53;5.30;;;;;;;;;;5012195;28;20025;-83
2022/04/03 03:48:49;;;;;;;8.23;4.43;;;;;;;;;;5012122;28;20498;-83
2022/04/03 03:51:14;;;;;;;11.17;5.93;;;;;;;;;;5012055;28;20566;-82
2022/04/03 03:53:40;;;;;;;8.10;4.67;;;;;;;;;;5010686;28;20415;-83
2022/04/03 03:56:05;;;;;;;8.50;4.63;;;;;;;;;;5012143;28;20014;-83
2022/04/03 03:58:30;;;;;;;9.27;5.00;;;;;;;;;;5010875;28;20025;-83
2022/04/03 04:00:56;;;;;;;8.60;4.63;;;;;;;;;;5011671;28;20022;-83
2022/04/03 04:03:21;;;;;;;10.53;5.63;;;;;;;;;;5012023;28;20022;-83
2022/04/03 04:05:46;;;;;;;10.60;5.13;;;;;;;;;;5012057;28;20049;-83
2022/04/03 04:08:11;;;;;;;9.57;4.97;;;;;;;;;;5010758;28;20120;-83
2022/04/03 04:10:36;;;;;;;10.80;5.57;;;;;;;;;;5012133;28;20021;-83
2022/04/03 04:13:02;;;;;;;10.70;4.73;;;;;;;;;;5015188;28;20030;-83
2022/04/03 04:15:28;;;;;;;7.87;4.20;;;;;;;;;;5015005;28;20064;-84
2022/04/03 04:17:56;;;;;;;8.83;4.50;;;;;;;;;;5015097;28;20105;-83
2022/04/03 04:20:22;;;;;;;10.40;5.10;;;;;;;;;;5013697;28;20064;-83
2022/04/03 04:22:48;;;;;;;12.00;5.63;;;;;;;;;;5014986;28;20099;-84
2022/04/03 04:25:14;;;;;;;8.63;3.70;;;;;;;;;;5015329;28;20022;-83
2022/04/03 04:27:40;;;;;;;8.23;4.67;;;;;;;;;;5015808;28;20032;-84
2022/04/03 04:30:05;;;;;;;6.70;4.03;;;;;;;;;;5013987;28;20046;-84
2022/04/03 04:32:32;;;;;;;9.10;4.47;;;;;;;;;;5014201;28;20426;-84
2022/04/03 04:34:57;;;;;;;7.63;4.20;;;;;;;;;;5013827;28;20470;-84
2022/04/03 04:37:22;;;;;;;6.27;4.00;;;;;;;;;;5013965;28;20028;-84
2022/04/03 04:39:47;;;;;;;10.37;4.73;;;;;;;;;;5013889;28;20029;-84
2022/04/03 04:42:13;;;;;;;7.67;4.20;;;;;;;;;;5015305;28;20018;-84
2022/04/03 04:44:38;;;;;;;9.90;4.50;;;;;;;;;;5013723;28;20026;-84
2022/04/03 04:47:04;;;;;;;7.17;4.20;;;;;;;;;;5013723;28;20022;-85
2022/04/03 04:49:29;;;;;;;9.73;4.53;;;;;;;;;;5014683;28;20117;-83
2022/04/03 04:51:54;;;;;;;7.67;3.93;;;;;;;;;;5013597;28;20018;-85
2022/04/03 04:54:19;;;;;;;7.97;4.10;;;;;;;;;;5013860;28;20088;-85
2022/04/03 04:56:44;;;;;;;7.30;3.73;;;;;;;;;;5013548;28;20083;-85
2022/04/03 04:59:10;;;;;;;8.17;4.20;;;;;;;;;;5014795;28;20018;-84
2022/04/03 05:01:36;;;;;;;9.53;4.93;;;;;;;;;;5014611;28;20018;-85
2022/04/03 05:04:01;;;;;;;14.10;6.77;;;;;;;;;;5013964;28;20022;-85
2022/04/03 05:06:27;;;;;;;21.67;10.47;;;;;;;;;;5012945;28;20467;-85
2022/04/03 05:08:52;;;;;;;21.53;9.47;;;;;;;;;;5012887;28;20061;-84
2022/04/03 05:11:18;;;;;;;25.63;13.40;;;;;;;;;;5014390;28;20018;-85
2022/04/03 05:13:43;;;;;;;17.83;9.40;;;;;;;;;;5014691;28;20032;-85
2022/04/03 05:16:08;;;;;;;18.90;9.40;;;;;;;;;;5013144;28;20013;-85
2022/04/03 05:18:37;;;;;;;15.30;7.50;;;;;;;;;;5013586;28;20453;-84
2022/04/03 05:21:04;;;;;;;11.53;5.77;;;;;;;;;;5014266;28;20022;-85
2022/04/03 05:23:29;;;;;;;16.03;6.47;;;;;;;;;;5014043;28;20085;-85
2022/04/03 05:25:54;;;;;;;11.33;5.27;;;;;;;;;;5012948;28;20104;-85
2022/04/03 05:28:21;;;;;;;12.07;6.43;;;;;;;;;;5012960;28;20055;-86
2022/04/03 05:30:46;;;;;;;12.17;5.53;;;;;;;;;;5014257;28;20022;-82
2022/04/03 05:33:13;;;;;;;14.33;6.13;;;;;;;;;;5014178;28;20521;-85
2022/04/03 05:35:38;;;;;;;17.13;6.07;;;;;;;;;;5014120;28;20080;-85
2022/04/03 05:38:03;;;;;;;14.43;6.60;;;;;;;;;;5012935;28;20014;-85
2022/04/03 05:40:29;;;;;;;13.43;5.57;;;;;;;;;;5014222;28;20026;-85
2022/04/03 05:42:54;;;;;;;15.13;6.90;;;;;;;;;;5012977;28;20160;-85
2022/04/03 05:45:19;;;;;;;14.67;7.10;;;;;;;;;;5012563;28;20061;-86
2022/04/03 05:47:44;;;;;;;16.97;7.80;;;;;;;;;;5013525;28;20034;-85
2022/04/03 05:50:10;;;;;;;17.87;7.07;;;;;;;;;;5012487;28;20414;-85
2022/04/03 05:52:39;;;;;;;19.07;7.67;;;;;;;;;;5012666;28;20160;-85
2022/04/03 05:55:05;;;;;;;17.90;6.37;;;;;;;;;;5012767;28;20493;-85
2022/04/03 05:57:30;;;;;;;14.80;6.40;;;;;;;;;;5012624;28;20021;-85
2022/04/03 05:59:55;;;;;;;16.67;6.50;;;;;;;;;;5013403;28;20499;-84
2022/04/03 06:02:20;;;;;;;15.03;6.53;;;;;;;;;;5012146;28;20026;-85
2022/04/03 06:04:46;;;;;;;12.03;6.40;;;;;;;;;;5013102;28;20017;-85
2022/04/03 06:07:11;;;;;;;10.93;5.47;;;;;;;;;;5012466;28;20018;-86
2022/04/03 06:09:36;;;;;;;14.43;6.30;;;;;;;;;;5013233;28;20068;-82
2022/04/03 06:12:02;;;;;;;15.53;5.73;;;;;;;;;;5013300;28;20014;-85
2022/04/03 06:14:27;;;;;;;15.83;6.47;;;;;;;;;;5013323;28;20466;-85
2022/04/03 06:16:52;;;;;;;17.43;7.63;;;;;;;;;;5012281;28;20108;-85
2022/04/03 06:19:17;;;;;;;19.63;9.93;;;;;;;;;;5012261;28;20038;-88
2022/04/03 06:21:42;;;;;;;28.23;14.47;;;;;;;;;;5011505;28;20459;-85
2022/04/03 06:24:07;;;;;;;22.50;10.80;;;;;;;;;;5012037;28;20372;-85
2022/04/03 06:26:33;;;;;;;19.33;8.30;;;;;;;;;;5011894;28;20029;-85
2022/04/03 06:28:58;;;;;;;15.47;7.67;;;;;;;;;;5011209;28;20033;-85
2022/04/03 06:31:23;;;;;;;15.13;6.30;;;;;;;;;;5011541;28;20022;-84
2022/04/03 06:33:49;;;;;;;16.63;7.40;;;;;;;;;;5010638;28;20029;-84
2022/04/03 06:36:14;;;;;;;11.97;7.07;;;;;;;;;;5011064;28;20486;-85
2022/04/03 06:38:39;;;;;;;10.43;5.27;;;;;;;;;;5010904;28;20022;-84
2022/04/03 06:41:04;;;;;;;10.53;5.80;;;;;;;;;;5012467;28;20022;-84
2022/04/03 06:43:30;;;;;;;11.23;5.60;;;;;;;;;;5012575;28;20026;-84
2022/04/03 06:45:56;;;;;;;10.80;5.10;;;;;;;;;;5011604;28;20033;-84
2022/04/03 06:48:22;;;;;;;9.10;4.67;;;;;;;;;;5011276;28;20037;-85
2022/04/03 06:50:47;;;;;;;10.00;4.93;;;;;;;;;;5010919;28;20453;-85
2022/04/03 06:53:13;;;;;;;7.03;3.33;;;;;;;;;;5012728;28;20029;-84
2022/04/03 06:55:38;;;;;;;9.07;4.20;;;;;;;;;;5012369;28;20025;-84
2022/04/03 06:58:03;;;;;;;9.90;4.00;;;;;;;;;;5011213;28;20026;-85
2022/04/03 07:00:29;;;;;;;9.20;4.33;;;;;;;;;;5011043;28;20386;-84
2022/04/03 07:02:54;;;;;;;10.67;3.73;;;;;;;;;;5011084;28;20022;-84
2022/04/03 07:05:20;;;;;;;8.40;4.10;;;;;;;;;;5011114;28;20061;-84
2022/04/03 07:07:45;;;;;;;10.37;3.90;;;;;;;;;;5010920;28;20116;-84
2022/04/03 07:10:10;;;;;;;6.87;3.43;;;;;;;;;;5010769;28;20066;-84
2022/04/03 07:12:36;;;;;;;9.77;3.80;;;;;;;;;;5012399;28;20025;-83
2022/04/03 07:15:02;;;;;;;8.50;3.40;;;;;;;;;;5012555;28;20025;-84
2022/04/03 07:17:27;;;;;;;8.20;3.43;;;;;;;;;;5011044;28;20494;-84
2022/04/03 07:19:52;;;;;;;6.87;3.13;;;;;;;;;;5010975;28;20120;-84
2022/04/03 07:22:17;;;;;;;5.23;2.93;;;;;;;;;;5011262;28;20022;-83
2022/04/03 07:24:43;;;;;;;9.97;3.47;;;;;;;;;;5011049;28;20022;-84
2022/04/03 07:27:08;;;;;;;6.50;3.27;;;;;;;;;;5010808;28;20017;-82
2022/04/03 07:29:34;;;;;;;5.87;2.90;;;;;;;;;;5012481;28;20026;-83
2022/04/03 07:31:59;;;;;;;5.77;3.13;;;;;;;;;;5011194;28;20112;-83
2022/04/03 07:34:24;;;;;;;8.70;3.40;;;;;;;;;;5012086;28;20061;-83
2022/04/03 07:36:49;;;;;;;7.93;3.43;;;;;;;;;;5010694;28;20052;-84
2022/04/03 07:39:15;;;;;;;7.27;3.73;;;;;;;;;;5012081;28;20022;-84
2022/04/03 07:41:40;;;;;;;7.33;3.87;;;;;;;;;;5010774;28;20088;-84
2022/04/03 07:44:06;;;;;;;7.13;3.87;;;;;;;;;;5011754;28;20482;-84
2022/04/03 07:46:31;;;;;;;9.77;4.30;;;;;;;;;;5015030;28;20093;-84
2022/04/03 07:48:56;;;;;;;7.13;3.90;;;;;;;;;;5014238;28;20029;-84
2022/04/03 07:51:23;;;;;;;9.97;4.00;;;;;;;;;;5015117;28;20018;-84
2022/04/03 07:53:48;;;;;;;8.80;4.90;;;;;;;;;;5013832;28;20593;-81
2022/04/03 07:56:14;;;;;;;7.00;3.90;;;;;;;;;;5014937;28;20105;-82
2022/04/03 07:58:39;;;;;;;9.10;4.13;;;;;;;;;;5013363;28;20026;-84
2022/04/03 08:01:04;;;;;;;6.57;3.57;;;;;;;;;;5012769;28;20123;-83
2022/04/03 08:03:29;;;;;;;8.03;3.43;;;;;;;;;;5006478;28;20063;-84
2022/04/03 08:05:55;;;;;;;5.57;3.33;;;;;;;;;;5002908;28;20022;-84
2022/04/03 08:08:20;;;;;;;5.33;3.30;;;;;;;;;;5008066;28;20076;-84
2022/04/03 08:10:45;;;;;;;9.83;4.27;;;;;;;;;;5008717;28;20399;-84
2022/04/03 08:13:11;;;;;;;8.83;3.60;;;;;;;;;;5004622;28;20084;-85
2022/04/03 08:15:36;;;;;;;9.80;4.30;;;;;;;;;;5009348;28;20010;-84
2022/04/03 08:18:01;;;;;;;9.50;4.10;;;;;;;;;;5003363;28;20018;-84
2022/04/03 08:20:26;;;;;;;5.37;3.17;;;;;;;;;;5000314;28;20049;-84
2022/04/03 08:22:52;;;;;;;6.07;2.70;;;;;;;;;;5001798;28;20072;-84
2022/04/03 08:25:18;;;;;;;5.80;2.97;;;;;;;;;;5016341;28;20025;-84
2022/04/03 08:27:50;;;;;;;8.77;2.93;;;;;;;;;;4992332;28;20546;-84
2022/04/03 08:30:17;;;;;;;7.03;2.87;;;;;;;;;;4991510;28;20042;-85
2022/04/03 08:32:42;;;;;;;5.60;2.77;;;;;;;;;;4991759;28;20033;-84
2022/04/03 08:35:08;;;;;;;4.87;2.87;;;;;;;;;;4992883;28;20026;-84
2022/04/03 08:37:34;;;;;;;8.00;3.53;;;;;;;;;;5007951;28;20065;-84
2022/04/03 08:39:59;;;;;;;4.80;3.20;;;;;;;;;;4991572;28;20526;-84
2022/04/03 08:42:25;;;;;;;4.40;2.67;;;;;;;;;;4992220;28;20030;-82
2022/04/03 08:44:50;;;;;;;3.37;2.40;;;;;;;;;;4991528;28;20018;-84
2022/04/03 08:47:19;;;;;;;7.87;3.43;;;;;;;;;;5008342;28;20085;-83
2022/04/03 08:49:46;;;;;;;5.97;2.67;;;;;;;;;;5007401;28;20038;-84
2022/04/03 08:52:12;;;;;;;6.90;2.80;;;;;;;;;;5002494;28;20026;-82
2022/04/03 08:54:37;;;;;;;5.13;2.70;;;;;;;;;;5009058;28;20065;-82
2022/04/03 08:57:03;;;;;;;5.30;2.23;;;;;;;;;;5000491;28;20407;-84
2022/04/03 08:59:28;;;;;;;5.82;1.88;;;;;;;;;;5008859;28;20108;-83
2022/04/03 09:01:53;;;;;;;4.80;2.00;;;;;;;;;;5002520;28;20045;-83
2022/04/03 09:04:20;;;;;;;2.90;2.10;;;;;;;;;;5004152;28;20057;-83
2022/04/03 09:06:59;;;;;;;4.18;2.15;;;;;;;;;;5009781;28;20558;-83
2022/04/03 09:09:25;;;;;;;2.87;1.73;;;;;;;;;;5002468;28;20079;-83
2022/04/03 09:12:09;;;;;;;4.20;1.73;;;;;;;;;;5002336;28;20026;-83
2022/04/03 09:14:35;;;;;;;2.83;1.70;;;;;;;;;;5000684;28;20455;-82
2022/04/03 09:17:01;;;;;;;6.20;2.35;;;;;;;;;;5002697;28;20080;-84
2022/04/03 09:19:33;;;;;;;7.07;2.10;;;;;;;;;;5013055;28;20021;-83
2022/04/03 09:21:59;;;;;;;4.00;2.10;;;;;;;;;;5006200;28;20026;-83
2022/04/03 09:24:24;;;;;;;3.70;2.20;;;;;;;;;;5002586;28;20023;-83
2022/04/03 09:26:58;;;;;;;6.47;2.40;;;;;;;;;;5000313;28;20076;-83
2022/04/03 09:29:24;;;;;;;3.40;1.90;;;;;;;;;;5000773;28;20072;-83
2022/04/03 09:31:56;;;;;;;10.25;2.35;;;;;;;;;;5014302;28;20030;-84
2022/04/03 09:34:24;;;;;;;4.33;2.10;;;;;;;;;;5015303;28;20022;-84
2022/04/03 09:37:00;;;;;;;4.90;2.13;;;;;;;;;;5001660;28;20096;-84
2022/04/03 09:39:27;;;;;;;2.93;2.00;;;;;;;;;;5000334;28;20077;-83
2022/04/03 09:42:00;;;;;;;2.83;1.80;;;;;;;;;;5001439;28;20453;-83
2022/04/03 09:44:26;;;;;;;6.43;1.95;;;;;;;;;;4999032;28;20037;-83
2022/04/03 09:47:11;;;;;;;4.45;1.83;;;;;;;;;;5001281;28;20014;-83
2022/04/03 09:49:36;;;;;;;5.50;1.83;;;;;;;;;;5001321;28;20041;-84
2022/04/03 09:52:01;;;;;;;4.35;2.50;;;;;;;;;;5016539;28;20485;-84
2022/04/03 09:54:26;;;;;;;9.68;1.98;;;;;;;;;;5001410;28;20026;-83
2022/04/03 09:56:51;;;;;;;4.68;1.75;;;;;;;;;;5004631;28;20033;-83
2022/04/03 09:59:17;;;;;;;4.15;2.00;;;;;;;;;;5007158;28;20032;-84
2022/04/03 10:01:42;;;;;;;3.60;2.10;;;;;;;;;;5001774;28;20014;-84
2022/04/03 10:04:08;;;;;;;6.53;1.42;;;;;;;;;;5003826;28;20014;-83
2022/04/03 10:06:34;;;;;;;3.90;1.52;;;;;;;;;;5010350;28;20041;-82
2022/04/03 10:08:59;;;;;;;6.38;1.80;;;;;;;;;;5009378;28;20058;-83
2022/04/03 10:11:25;;;;;;;4.43;1.92;;;;;;;;;;5009890;28;20112;-82
2022/04/03 10:13:50;;;;;;;2.45;1.45;;;;;;;;;;5010094;28;20101;-83
2022/04/03 10:16:16;;;;;;;5.97;1.70;;;;;;;;;;5009760;28;20034;-82
2022/04/03 10:18:43;;;;;;;3.25;1.90;;;;;;;;;;5009750;28;20018;-83
2022/04/03 10:21:11;;;;;;;6.32;2.10;;;;;;;;;;5010527;28;20065;-83
2022/04/03 10:23:39;;;;;;;5.05;1.83;;;;;;;;;;5009147;28;20018;-83
2022/04/03 10:26:05;;;;;;;4.25;2.20;;;;;;;;;;5009053;28;20026;-83
2022/04/03 10:28:31;;;;;;;3.70;2.05;;;;;;;;;;5010823;28;20468;-83
2022/04/03 10:31:00;;;;;;;3.13;1.70;;;;;;;;;;5010855;28;20075;-83
2022/04/03 10:33:25;;;;;;;3.92;1.83;;;;;;;;;;5026396;28;20048;-84
2022/04/03 10:36:03;;;;;;;2.38;1.63;;;;;;;;;;5011819;28;20022;-83
2022/04/03 10:38:39;;;;;;;4.22;2.20;;;;;;;;;;5009607;28;20585;-82
2022/04/03 10:41:06;;;;;;;2.67;1.73;;;;;;;;;;5010370;28;20053;-83
2022/04/03 10:43:36;;;;;;;3.63;2.13;;;;;;;;;;5008865;28;20420;-83
2022/04/03 10:46:01;;;;;;;5.60;2.00;;;;;;;;;;5008847;28;20033;-84
2022/04/03 10:48:27;;;;;;;4.35;2.35;;;;;;;;;;5010057;28;20037;-83
2022/04/03 10:51:09;;;;;;;3.83;1.70;;;;;;;;;;5010055;28;20018;-81
2022/04/03 10:53:42;;;;;;;5.10;1.90;;;;;;;;;;5010525;28;20029;-81
2022/04/03 10:56:09;;;;;;;3.30;1.70;;;;;;;;;;5009321;28;20018;-81
2022/04/03 10:58:38;;;;;;;4.88;1.80;;;;;;;;;;5009685;28;20025;-81
2022/04/03 11:01:03;;;;;;;4.05;1.70;;;;;;;;;;5008876;28;20018;-81
2022/04/03 11:03:29;;;;;;;3.97;1.55;;;;;;;;;;5009688;28;20026;-81
2022/04/03 11:05:54;;;;;;;2.10;1.67;;;;;;;;;;5008947;28;20037;-82
2022/04/03 11:08:40;;;;;;;3.83;2.08;;;;;;;;;;5009269;28;20030;-80
2022/04/03 11:11:08;;;;;;;1.77;1.60;;;;;;;;;;4989574;28;20018;-81
2022/04/03 11:13:34;;;;;;;2.83;1.23;;;;;;;;;;4990152;28;20042;-83
2022/04/03 11:16:02;;;;;;;2.17;1.25;;;;;;;;;;4990209;28;20026;-83
2022/04/03 11:18:30;;;;;;;2.75;1.73;;;;;;;;;;4990066;28;20025;-81
2022/04/03 11:21:07;;;;;;;1.60;1.50;;;;;;;;;;5010945;28;20034;-81
2022/04/03 11:23:34;;;;;;;2.30;1.30;;;;;;;;;;5013677;28;20026;-81
2022/04/03 11:25:59;;;;;;;2.63;1.33;;;;;;;;;;5011578;28;20037;-81
2022/04/03 11:28:25;;;;;;;2.20;1.30;;;;;;;;;;5011828;28;20022;-81
2022/04/03 11:30:50;;;;;;;3.78;1.67;;;;;;;;;;5013899;28;20385;-81
2022/04/03 11:33:15;;;;;;;3.25;1.80;;;;;;;;;;5029202;28;20057;-81
2022/04/03 11:35:41;;;;;;;2.17;1.30;;;;;;;;;;5012596;28;20072;-81
2022/04/03 11:38:06;;;;;;;2.13;1.30;;;;;;;;;;5013678;28;20030;-84
2022/04/03 11:40:32;;;;;;;1.80;1.15;;;;;;;;;;5012264;28;20022;-83
2022/04/03 11:43:15;;;;;;;2.67;1.15;;;;;;;;;;5013759;28;20018;-83
2022/04/03 11:45:40;;;;;;;2.20;1.08;;;;;;;;;;5028136;28;20382;-83
2022/04/03 11:48:16;;;;;;;1.20;0.90;;;;;;;;;;5012361;28;20474;-83
2022/04/03 11:50:41;;;;;;;4.00;1.23;;;;;;;;;;5011379;28;20033;-83
2022/04/03 11:53:07;;;;;;;1.65;1.45;;;;;;;;;;5013371;28;20022;-82
2022/04/03 11:55:35;;;;;;;3.15;1.45;;;;;;;;;;5011228;28;20022;-83
2022/04/03 11:58:04;;;;;;;5.10;1.20;;;;;;;;;;5013145;28;20156;-83
2022/04/03 12:00:30;;;;;;;2.60;1.35;;;;;;;;;;5012246;28;20022;-83
2022/04/03 12:02:59;;;;;;;2.08;1.45;;;;;;;;;;5016653;28;20463;-83
2022/04/03 12:05:24;;;;;;;3.40;1.60;;;;;;;;;;5012606;28;20029;-83
2022/04/03 12:07:50;;;;;;;5.97;2.13;;;;;;;;;;5027561;28;20025;-84
2022/04/03 12:10:28;;;;;;;4.45;1.63;;;;;;;;;;5015329;28;20033;-83
2022/04/03 12:12:57;;;;;;;1.58;1.10;;;;;;;;;;5034400;28;20113;-84
2022/04/03 12:15:24;;;;;;;1.58;1.23;;;;;;;;;;5015845;28;20460;-84
2022/04/03 12:17:58;;;;;;;1.50;1.10;;;;;;;;;;4992858;28;20022;-83
2022/04/03 12:20:24;;;;;;;1.92;1.20;;;;;;;;;;4993416;28;20022;-84
2022/04/03 12:22:49;;;;;;;1.98;1.35;;;;;;;;;;4993292;28;20029;-83
2022/04/03 12:25:15;;;;;;;2.42;1.30;;;;;;;;;;4991920;28;20022;-83
2022/04/03 12:27:40;;;;;;;2.25;1.13;;;;;;;;;;4992393;28;20494;-84
2022/04/03 12:30:07;;;;;;;2.35;1.30;;;;;;;;;;4993048;28;20030;-84
2022/04/03 12:32:35;;;;;;;1.58;1.02;;;;;;;;;;4991294;28;20023;-84
2022/04/03 12:35:00;;;;;;;4.35;1.50;;;;;;;;;;4992632;28;20053;-84
2022/04/03 12:37:26;;;;;;;2.75;1.42;;;;;;;;;;4992885;28;20061;-84
2022/04/03 12:39:51;;;;;;;2.60;1.20;;;;;;;;;;4992031;28;20037;-84
2022/04/03 12:42:25;;;;;;;2.78;1.55;;;;;;;;;;4992435;28;20023;-84
2022/04/03 12:44:52;;;;;;;2.60;1.27;;;;;;;;;;4992938;28;20025;-84
2022/04/03 12:47:18;;;;;;;2.38;1.30;;;;;;;;;;4993249;28;20023;-83
2022/04/03 12:49:47;;;;;;;4.45;2.45;;;;;;;;;;4991945;28;20022;-84
2022/04/03 12:52:17;;;;;;;2.58;1.20;;;;;;;;;;4992970;28;20022;-83
2022/04/03 12:54:43;;;;;;;7.63;3.20;;;;;;;;;;4992626;28;20487;-84
2022/04/03 13:00:13;;;;;;;3.15;1.70;;;;;;;;;;4993015;28;20073;-83
2022/04/03 13:02:39;;;;;;;5.22;3.03;;;;;;;;;;5008173;28;20311;-83
2022/04/03 13:05:04;;;;;;;2.28;1.40;;;;;;;;;;4993068;28;20455;-83
2022/04/03 13:07:29;;;;;;;4.82;2.38;;;;;;;;;;4991017;28;20018;-83
2022/04/03 13:09:56;;;;;;;1.55;1.45;;;;;;;;;;4992572;28;20498;-84
2022/04/03 13:12:28;;;;;;;2.28;1.10;;;;;;;;;;5002549;28;20018;-83
2022/04/03 13:14:54;;;;;;;2.45;1.67;;;;;;;;;;5013949;28;20054;-83
2022/04/03 13:17:19;;;;;;;3.33;1.30;;;;;;;;;;5013782;28;20487;-83
2022/04/03 13:19:45;;;;;;;2.03;1.25;;;;;;;;;;5013838;28;20026;-83
2022/04/03 13:22:12;;;;;;;1.60;1.20;;;;;;;;;;5013853;28;20022;-83
2022/04/03 13:24:37;;;;;;;2.50;1.40;;;;;;;;;;5014078;28;20030;-83
2022/04/03 13:27:03;;;;;;;7.32;1.77;;;;;;;;;;5011231;28;20368;-82
2022/04/03 13:29:28;;;;;;;1.50;1.10;;;;;;;;;;5012950;28;20038;-82
2022/04/03 13:31:54;;;;;;;3.05;1.45;;;;;;;;;;5011957;28;20025;-82
2022/04/03 13:34:19;;;;;;;4.45;2.03;;;;;;;;;;5013234;28;20394;-83
2022/04/03 13:36:45;;;;;;;3.53;1.80;;;;;;;;;;5027707;28;20041;-84
2022/04/03 13:39:10;;;;;;;2.90;1.58;;;;;;;;;;5011818;28;20048;-84
2022/04/03 13:41:38;;;;;;;4.57;1.70;;;;;;;;;;5012518;28;20390;-83
2022/04/03 13:44:04;;;;;;;4.53;2.13;;;;;;;;;;5012096;28;20022;-84
2022/04/03 13:46:29;;;;;;;5.93;2.83;;;;;;;;;;5012235;28;20033;-84
2022/04/03 13:48:54;;;;;;;4.55;2.22;;;;;;;;;;5012313;28;20092;-84
2022/04/03 13:51:19;;;;;;;2.35;1.52;;;;;;;;;;5008115;28;20116;-83
2022/04/03 13:53:46;;;;;;;1.88;1.42;;;;;;;;;;5031256;28;20528;-83
2022/04/03 13:56:12;;;;;;;4.43;1.60;;;;;;;;;;5031207;28;20076;-83
2022/04/03 13:58:37;;;;;;;2.47;1.10;;;;;;;;;;5029899;28;20021;-83
2022/04/03 14:01:04;;;;;;;2.38;1.27;;;;;;;;;;5013125;28;20620;-83
2022/04/03 14:03:30;;;;;;;2.55;1.73;;;;;;;;;;4991799;28;20037;-83
2022/04/03 14:05:56;;;;;;;3.17;1.83;;;;;;;;;;4991307;28;20054;-83
2022/04/03 14:08:21;;;;;;;3.17;1.35;;;;;;;;;;4991389;28;20022;-83
2022/04/03 14:10:47;;;;;;;1.50;1.35;;;;;;;;;;5000226;28;20029;-83
2022/04/03 14:13:15;;;;;;;2.08;1.52;;;;;;;;;;5010559;28;20080;-83
2022/04/03 14:15:41;;;;;;;4.25;1.95;;;;;;;;;;5009667;28;20025;-83
2022/04/03 14:18:06;;;;;;;2.22;1.65;;;;;;;;;;5009946;28;20025;-83
2022/04/03 14:20:31;;;;;;;4.20;1.90;;;;;;;;;;5004737;28;20038;-83
2022/04/03 14:22:57;;;;;;;3.95;1.40;;;;;;;;;;4991454;28;20360;-84
2022/04/03 14:25:22;;;;;;;1.40;1.25;;;;;;;;;;5006192;28;20120;-83
2022/04/03 14:27:47;;;;;;;2.03;1.40;;;;;;;;;;5005822;28;20037;-84
2022/04/03 14:30:13;;;;;;;3.55;1.83;;;;;;;;;;5008373;28;20072;-83
2022/04/03 14:32:45;;;;;;;2.97;1.50;;;;;;;;;;5011303;28;20029;-83
2022/04/03 14:35:11;;;;;;;2.08;1.17;;;;;;;;;;5010795;28;20109;-84